Time;durP1;ratioP1;P1;durP2;ratioP2;P2;SDS_P1;SDS_P2;PMS_P1;PMS_P2;Temp;Humidity;BMP_temperature;BMP_pressure;BME280_temperature;BME280_humidity;BME280_pressure;Samples;Min_cycle;Max_cycle;Signal;HPM_P1;HPM_P2
2023/02/25 00:01:31;;;;;;;10.20;2.22;;;6.10;99.90;;;;;;5093061;28;20548;-75
2023/02/25 00:03:58;;;;;;;16.95;5.03;;;6.10;99.90;;;;;;5082714;28;20630;-75
2023/02/25 00:06:26;;;;;;;10.27;3.05;;;6.10;99.90;;;;;;5092170;28;20299;-75
2023/02/25 00:08:53;;;;;;;19.10;3.67;;;6.10;99.90;;;;;;5097289;28;20569;-74
2023/02/25 00:11:23;;;;;;;12.95;3.55;;;6.10;99.90;;;;;;5082636;28;20205;-75
2023/02/25 00:13:54;;;;;;;9.20;2.30;;;6.10;99.90;;;;;;5085033;28;20192;-74
2023/02/25 00:16:22;;;;;;;16.25;3.50;;;6.20;99.90;;;;;;5088937;28;20236;-75
2023/02/25 00:18:54;;;;;;;5.20;2.67;;;6.00;99.90;;;;;;5090155;28;20222;-76
2023/02/25 00:21:21;;;;;;;9.07;2.63;;;6.10;99.90;;;;;;5093280;28;20665;-74
2023/02/25 00:23:49;;;;;;;12.15;3.20;;;6.00;99.90;;;;;;5089589;28;20210;-75
2023/02/25 00:26:17;;;;;;;12.50;3.03;;;5.90;99.90;;;;;;5092005;28;20254;-74
2023/02/25 00:28:47;;;;;;;6.13;2.40;;;5.90;99.90;;;;;;5087951;28;20337;-75
2023/02/25 00:31:16;;;;;;;12.93;3.38;;;5.80;99.90;;;;;;5078783;28;20208;-76
2023/02/25 00:33:44;;;;;;;9.30;2.78;;;5.80;99.90;;;;;;5089637;28;20285;-76
2023/02/25 00:36:13;;;;;;;13.30;3.95;;;5.80;99.90;;;;;;5093245;28;20289;-76
2023/02/25 00:38:41;;;;;;;5.32;2.05;;;5.80;99.90;;;;;;5093599;28;20646;-75
2023/02/25 00:41:10;;;;;;;6.75;1.95;;;5.80;99.90;;;;;;5093322;28;20558;-74
2023/02/25 00:43:42;;;;;;;13.82;2.78;;;5.90;99.90;;;;;;5085937;28;20195;-75
2023/02/25 00:46:10;;;;;;;12.90;2.08;;;5.90;99.90;;;;;;5091785;28;20256;-74
2023/02/25 00:48:38;;;;;;;15.85;3.13;;;5.90;99.90;;;;;;5086417;28;20204;-76
2023/02/25 00:51:07;;;;;;;4.15;1.95;;;5.90;99.90;;;;;;5087642;28;20295;-75
2023/02/25 00:53:44;;;;;;;14.60;2.30;;;6.00;99.90;;;;;;5094043;28;20216;-76
2023/02/25 00:56:14;;;;;;;9.35;2.88;;;5.90;99.90;;;;;;5086534;28;20307;-77
2023/02/25 00:58:42;;;;;;;7.15;1.70;;;5.90;99.90;;;;;;5091865;28;20257;-75
2023/02/25 01:01:19;;;;;;;10.20;2.05;;;5.90;99.90;;;;;;5093032;28;20240;-75
2023/02/25 01:03:46;;;;;;;8.27;3.20;;;6.00;99.90;;;;;;5087755;28;20689;-76
2023/02/25 01:06:14;;;;;;;8.13;2.70;;;6.00;99.90;;;;;;5092867;28;20254;-75
2023/02/25 01:08:41;;;;;;;5.50;1.75;;;6.00;99.90;;;;;;5090465;28;20201;-76
2023/02/25 01:11:15;;;;;;;5.18;2.33;;;6.00;99.90;;;;;;5094855;28;20629;-74
2023/02/25 01:13:42;;;;;;;10.70;2.78;;;6.00;99.90;;;;;;5097133;28;20200;-76
2023/02/25 01:16:19;;;;;;;12.90;3.30;;;6.00;99.90;;;;;;5095696;28;20239;-75
2023/02/25 01:18:47;;;;;;;16.13;3.75;;;5.90;99.90;;;;;;5106590;28;20198;-74
2023/02/25 01:21:18;;;;;;;14.20;2.42;;;5.90;99.90;;;;;;5100406;28;20344;-76
2023/02/25 01:23:46;;;;;;;9.60;1.48;;;5.90;99.90;;;;;;5100059;28;20218;-74
2023/02/25 01:26:13;;;;;;;9.80;2.08;;;5.90;99.90;;;;;;5092014;28;20218;-75
2023/02/25 01:28:40;;;;;;;7.90;2.33;;;5.90;99.90;;;;;;5093250;28;20215;-76
2023/02/25 01:31:23;;;;;;;13.30;3.65;;;5.80;99.90;;;;;;5086757;28;20326;-76
2023/02/25 01:33:50;;;;;;;11.93;2.22;;;5.80;99.90;;;;;;5082894;28;20206;-76
2023/02/25 01:36:18;;;;;;;5.95;1.85;;;5.70;99.90;;;;;;5079642;28;20316;-75
2023/02/25 01:38:45;;;;;;;11.10;2.63;;;5.80;99.90;;;;;;5086435;28;20330;-74
2023/02/25 01:41:12;;;;;;;10.18;1.90;;;5.70;99.90;;;;;;5080603;28;20692;-75
2023/02/25 01:43:40;;;;;;;9.68;2.95;;;5.70;99.90;;;;;;5078977;28;20719;-75
2023/02/25 01:46:07;;;;;;;5.47;2.55;;;5.70;99.90;;;;;;5089288;28;20231;-76
2023/02/25 01:48:40;;;;;;;4.80;1.77;;;5.70;99.90;;;;;;5087016;28;20236;-74
2023/02/25 01:51:13;;;;;;;8.23;1.90;;;5.70;99.90;;;;;;5089133;28;20669;-75
2023/02/25 01:53:44;;;;;;;11.00;2.13;;;5.70;99.90;;;;;;5090395;28;20254;-76
2023/02/25 01:56:14;;;;;;;12.60;3.00;;;5.70;99.90;;;;;;5076181;28;21860;-76
2023/02/25 01:58:41;;;;;;;5.07;3.00;;;5.70;99.90;;;;;;5092373;28;20618;-73
2023/02/25 02:01:13;;;;;;;8.20;2.50;;;5.60;99.90;;;;;;5091148;28;20201;-75
2023/02/25 02:03:43;;;;;;;9.05;2.67;;;5.70;99.90;;;;;;5076595;28;20698;-75
2023/02/25 02:06:14;;;;;;;3.53;1.48;;;5.70;99.90;;;;;;5085440;28;20301;-75
2023/02/25 02:08:44;;;;;;;9.30;2.90;;;5.60;99.90;;;;;;5092349;28;20736;-76
2023/02/25 02:11:11;;;;;;;5.70;1.65;;;5.60;99.90;;;;;;5087964;28;20253;-75
2023/02/25 02:13:42;;;;;;;8.57;1.92;;;5.60;99.90;;;;;;5091923;28;20293;-75
2023/02/25 02:16:25;;;;;;;4.28;1.42;;;5.60;99.90;;;;;;5087504;28;20236;-76
2023/02/25 02:18:57;;;;;;;9.38;2.05;;;5.70;99.90;;;;;;5084597;28;20587;-76
2023/02/25 02:21:49;;;;;;;17.15;3.65;;;5.70;99.90;;;;;;5082249;28;20661;-76
2023/02/25 02:24:51;;;;;;;4.97;1.30;;;5.70;99.90;;;;;;5081489;28;20231;-75
2023/02/25 02:27:26;;;;;;;7.00;2.17;;;5.80;99.90;;;;;;5065550;28;20231;-76
2023/02/25 02:30:12;;;;;;;9.80;2.50;;;5.80;99.90;;;;;;5076529;28;20567;-76
2023/02/25 02:32:46;;;;;;;6.90;1.98;;;5.80;99.90;;;;;;5095605;28;20298;-75
2023/02/25 02:35:19;;;;;;;7.78;2.10;;;5.80;99.90;;;;;;5067982;28;20667;-76
2023/02/25 02:37:57;;;;;;;6.25;1.63;;;5.90;99.90;;;;;;5088302;28;20318;-76
2023/02/25 02:40:38;;;;;;;4.32;1.65;;;5.80;99.90;;;;;;5082222;28;20214;-74
2023/02/25 02:43:13;;;;;;;9.40;2.03;;;5.70;99.90;;;;;;5086984;28;20252;-76
2023/02/25 02:45:49;;;;;;;4.32;1.88;;;5.70;99.90;;;;;;5073800;28;20199;-75
2023/02/25 02:48:21;;;;;;;10.43;2.30;;;5.60;99.90;;;;;;5068222;28;20203;-76
2023/02/25 02:50:54;;;;;;;20.50;3.17;;;5.60;99.90;;;;;;5095854;28;20561;-76
2023/02/25 02:53:27;;;;;;;4.10;1.48;;;5.60;99.90;;;;;;5088191;28;20283;-77
2023/02/25 02:55:57;;;;;;;4.82;1.85;;;5.60;99.90;;;;;;5078064;28;20195;-76
2023/02/25 02:58:28;;;;;;;9.10;2.63;;;5.60;99.90;;;;;;5089845;28;20227;-76
2023/02/25 03:00:59;;;;;;;1.92;1.10;;;5.60;99.90;;;;;;5082703;28;20617;-77
2023/02/25 03:03:35;;;;;;;9.05;2.05;;;5.60;99.90;;;;;;5083428;28;20261;-76
2023/02/25 03:06:05;;;;;;;5.20;1.70;;;5.60;99.90;;;;;;5088837;28;20289;-75
2023/02/25 03:08:39;;;;;;;7.03;1.38;;;5.70;99.90;;;;;;5076384;28;20689;-76
2023/02/25 03:11:06;;;;;;;6.68;2.50;;;5.70;99.90;;;;;;5089756;28;20207;-76
2023/02/25 03:13:36;;;;;;;16.48;3.38;;;5.70;99.90;;;;;;5080907;28;20201;-76
2023/02/25 03:16:06;;;;;;;10.93;2.28;;;5.70;99.90;;;;;;5081791;28;20598;-74
2023/02/25 03:18:41;;;;;;;7.57;1.70;;;5.70;99.90;;;;;;5089300;28;20236;-76
2023/02/25 03:21:13;;;;;;;6.88;1.70;;;5.70;99.90;;;;;;5082848;28;20538;-76
2023/02/25 03:23:45;;;;;;;15.02;1.92;;;5.70;99.90;;;;;;5090824;28;20284;-75
2023/02/25 03:26:19;;;;;;;6.55;1.98;;;5.70;99.90;;;;;;5080929;28;20360;-75
2023/02/25 03:28:46;;;;;;;5.68;1.40;;;5.70;99.90;;;;;;5066127;28;20198;-75
2023/02/25 03:31:20;;;;;;;2.72;1.98;;;5.70;99.90;;;;;;5083355;28;20285;-75
2023/02/25 03:33:52;;;;;;;5.93;1.60;;;5.70;99.90;;;;;;5082498;28;20286;-76
2023/02/25 03:36:23;;;;;;;11.35;1.95;;;5.70;99.90;;;;;;5087189;28;20236;-76
2023/02/25 03:38:54;;;;;;;2.33;1.63;;;5.80;99.90;;;;;;5081744;28;20290;-74
2023/02/25 03:41:25;;;;;;;5.32;1.30;;;5.70;99.90;;;;;;5080455;28;20245;-76
2023/02/25 03:43:56;;;;;;;10.60;1.38;;;5.70;99.90;;;;;;5090203;28;20249;-75
2023/02/25 03:46:25;;;;;;;5.15;1.40;;;5.70;99.90;;;;;;5086852;28;20227;-74
2023/02/25 03:48:54;;;;;;;7.35;1.20;;;5.70;99.90;;;;;;5082115;28;20204;-75
2023/02/25 03:51:28;;;;;;;4.20;1.35;;;5.70;99.90;;;;;;5087003;28;20407;-75
2023/02/25 03:53:55;;;;;;;2.63;1.92;;;5.70;99.90;;;;;;5096398;28;20207;-76
2023/02/25 03:56:22;;;;;;;8.82;1.55;;;5.60;99.90;;;;;;5092852;28;20233;-76
2023/02/25 03:58:49;;;;;;;4.25;1.38;;;5.60;99.90;;;;;;5100529;28;20245;-75
2023/02/25 04:01:21;;;;;;;3.65;1.42;;;5.60;99.90;;;;;;5108112;28;20207;-75
2023/02/25 04:03:50;;;;;;;8.85;1.75;;;5.60;99.90;;;;;;5094646;28;20202;-75
2023/02/25 04:06:21;;;;;;;2.67;1.13;;;5.50;99.90;;;;;;5094869;28;20331;-76
2023/02/25 04:08:48;;;;;;;4.72;1.25;;;5.50;99.90;;;;;;5080923;28;20202;-76
2023/02/25 04:11:15;;;;;;;3.72;1.40;;;5.40;99.90;;;;;;5080322;28;20618;-75
2023/02/25 04:13:46;;;;;;;2.75;1.27;;;5.40;99.90;;;;;;5088259;28;20606;-75
2023/02/25 04:16:13;;;;;;;3.28;1.05;;;5.40;99.90;;;;;;5094023;28;20228;-76
2023/02/25 04:18:59;;;;;;;2.15;1.45;;;5.30;99.90;;;;;;5081006;28;20203;-75
2023/02/25 04:21:29;;;;;;;5.55;1.55;;;5.20;99.90;;;;;;5077215;28;20203;-75
2023/02/25 04:23:58;;;;;;;7.97;1.20;;;5.20;99.90;;;;;;5093429;28;20281;-76
2023/02/25 04:26:25;;;;;;;1.73;0.90;;;5.20;99.90;;;;;;5083678;28;20220;-76
2023/02/25 04:29:02;;;;;;;1.25;0.85;;;5.10;99.90;;;;;;5082888;28;20277;-75
2023/02/25 04:31:29;;;;;;;1.70;1.10;;;5.10;99.90;;;;;;5082299;28;20722;-75
2023/02/25 04:34:11;;;;;;;4.90;1.42;;;5.10;99.90;;;;;;5094013;28;20194;-76
2023/02/25 04:36:40;;;;;;;4.38;1.08;;;5.00;99.90;;;;;;5078590;28;20286;-76
2023/02/25 04:39:07;;;;;;;3.15;1.73;;;5.00;99.90;;;;;;5087735;28;20202;-75
2023/02/25 04:41:36;;;;;;;3.30;0.90;;;5.10;99.90;;;;;;5087939;28;20202;-76
2023/02/25 04:44:32;;;;;;;4.72;0.88;;;5.00;99.90;;;;;;5087592;28;20617;-76
2023/02/25 04:46:59;;;;;;;4.57;1.35;;;5.00;99.90;;;;;;5081308;28;20637;-75
2023/02/25 04:49:43;;;;;;;3.55;1.85;;;5.00;99.90;;;;;;5082155;28;20198;-74
2023/02/25 04:52:12;;;;;;;3.28;1.10;;;5.10;99.90;;;;;;5082155;28;20206;-76
2023/02/25 04:54:40;;;;;;;2.92;1.50;;;5.10;99.90;;;;;;5083829;28;20688;-75
2023/02/25 04:57:07;;;;;;;3.10;1.40;;;5.10;99.90;;;;;;5092374;28;20642;-75
2023/02/25 04:59:34;;;;;;;5.32;0.93;;;5.10;99.90;;;;;;5087404;28;20214;-77
2023/02/25 05:02:02;;;;;;;1.50;1.25;;;5.10;99.90;;;;;;5091583;28;20281;-74
2023/02/25 05:04:29;;;;;;;2.70;1.05;;;5.10;99.90;;;;;;5095036;28;20648;-75
2023/02/25 05:06:56;;;;;;;3.55;1.08;;;5.10;99.90;;;;;;5082975;28;20614;-76
2023/02/25 05:09:25;;;;;;;3.15;1.00;;;5.00;99.90;;;;;;5094628;28;20233;-75
2023/02/25 05:11:54;;;;;;;2.60;1.40;;;5.00;99.90;;;;;;5094896;28;20251;-74
2023/02/25 05:14:21;;;;;;;4.40;0.90;;;5.00;99.90;;;;;;5090570;28;20241;-75
2023/02/25 05:16:48;;;;;;;3.47;1.33;;;5.00;99.90;;;;;;5091116;28;20256;-75
2023/02/25 05:19:16;;;;;;;6.18;2.35;;;5.00;99.90;;;;;;5092970;28;20312;-76
2023/02/25 05:21:43;;;;;;;4.35;1.67;;;5.00;99.90;;;;;;5087504;28;20286;-76
2023/02/25 05:24:11;;;;;;;4.75;1.20;;;5.00;99.90;;;;;;5088658;28;20206;-74
2023/02/25 05:26:40;;;;;;;4.05;1.00;;;4.90;99.90;;;;;;5085156;28;20233;-75
2023/02/25 05:29:07;;;;;;;5.35;1.13;;;4.90;99.90;;;;;;5085709;28;20191;-76
2023/02/25 05:31:35;;;;;;;3.30;1.15;;;4.90;99.90;;;;;;5092376;28;20271;-76
2023/02/25 05:34:02;;;;;;;3.40;1.25;;;4.90;99.90;;;;;;5093247;28;20194;-76
2023/02/25 05:36:30;;;;;;;3.17;1.30;;;4.80;99.90;;;;;;5091918;28;20630;-75
2023/02/25 05:39:01;;;;;;;1.80;1.42;;;4.80;99.90;;;;;;5089444;28;20272;-75
2023/02/25 05:41:28;;;;;;;5.95;1.20;;;4.80;99.90;;;;;;5090333;28;20202;-75
2023/02/25 05:43:57;;;;;;;2.75;1.30;;;4.90;99.90;;;;;;5078337;28;20207;-75
2023/02/25 05:46:25;;;;;;;2.40;1.15;;;4.90;99.90;;;;;;5077338;28;20304;-75
2023/02/25 05:48:52;;;;;;;7.78;1.23;;;5.00;99.90;;;;;;5074819;28;20607;-75
2023/02/25 05:51:21;;;;;;;3.83;1.00;;;5.00;99.90;;;;;;5075196;28;20610;-76
2023/02/25 05:53:48;;;;;;;4.32;1.30;;;5.00;99.90;;;;;;5076662;28;20206;-75
2023/02/25 05:56:17;;;;;;;3.72;1.92;;;5.10;99.90;;;;;;5082293;28;20259;-75
2023/02/25 05:58:45;;;;;;;5.88;2.55;;;5.00;99.90;;;;;;5077812;28;20311;-75
2023/02/25 06:01:15;;;;;;;5.53;2.33;;;5.00;99.90;;;;;;5083270;28;20204;-75
2023/02/25 06:03:44;;;;;;;2.80;1.10;;;5.00;99.90;;;;;;5090209;28;20200;-75
2023/02/25 06:06:13;;;;;;;9.15;2.08;;;5.00;99.90;;;;;;5085839;28;20218;-75
2023/02/25 06:08:40;;;;;;;4.10;1.30;;;5.00;99.90;;;;;;5083262;28;20198;-75
2023/02/25 06:11:08;;;;;;;4.47;1.30;;;4.90;99.90;;;;;;5087141;28;20285;-76
2023/02/25 06:13:35;;;;;;;1.98;0.95;;;4.90;99.90;;;;;;5081497;28;20234;-76
2023/02/25 06:16:14;;;;;;;3.45;0.95;;;4.90;99.90;;;;;;5079617;28;20206;-74
2023/02/25 06:18:41;;;;;;;2.45;1.30;;;4.90;99.90;;;;;;5080780;28;20206;-75
2023/02/25 06:21:10;;;;;;;7.28;1.73;;;4.90;99.90;;;;;;5085955;28;20652;-76
2023/02/25 06:23:39;;;;;;;3.00;1.00;;;4.90;99.90;;;;;;5085357;28;20207;-75
2023/02/25 06:26:08;;;;;;;4.00;1.35;;;4.90;99.90;;;;;;5084957;28;20267;-75
2023/02/25 06:28:35;;;;;;;2.50;1.50;;;4.90;99.90;;;;;;5087129;28;20220;-75
2023/02/25 06:31:03;;;;;;;2.72;1.80;;;5.00;99.90;;;;;;5090967;28;20198;-74
2023/02/25 06:33:32;;;;;;;4.07;0.93;;;5.00;99.90;;;;;;5094367;28;20210;-74
2023/02/25 06:36:00;;;;;;;5.20;1.35;;;4.90;99.90;;;;;;5097388;28;20243;-76
2023/02/25 06:38:27;;;;;;;3.28;1.35;;;4.90;99.90;;;;;;5088242;28;20210;-75
2023/02/25 06:40:54;;;;;;;3.22;1.20;;;4.90;99.90;;;;;;5088529;28;20234;-76
2023/02/25 06:43:21;;;;;;;5.15;1.17;;;4.90;99.90;;;;;;5084897;28;20233;-75
2023/02/25 06:45:48;;;;;;;3.05;0.98;;;5.00;99.90;;;;;;5084317;28;20282;-75
2023/02/25 06:48:15;;;;;;;7.88;1.10;;;5.10;99.90;;;;;;5082248;28;20648;-74
2023/02/25 06:50:43;;;;;;;2.00;1.30;;;5.20;99.90;;;;;;5095273;28;20685;-76
2023/02/25 06:53:10;;;;;;;2.60;0.95;;;5.10;99.90;;;;;;5095822;28;20252;-75
2023/02/25 06:55:39;;;;;;;3.28;1.95;;;5.20;99.90;;;;;;5092630;28;20244;-76
2023/02/25 06:58:06;;;;;;;4.15;1.27;;;5.20;99.90;;;;;;5096074;28;20561;-74
2023/02/25 07:00:33;;;;;;;8.05;1.50;;;5.40;99.90;;;;;;5093977;28;20194;-74
2023/02/25 07:03:36;;;;;;;4.55;0.93;;;5.50;99.90;;;;;;5095299;28;20628;-76
2023/02/25 07:06:05;;;;;;;2.20;1.17;;;5.50;99.90;;;;;;5085389;28;20238;-74
2023/02/25 07:08:33;;;;;;;3.95;1.73;;;5.50;99.90;;;;;;5082437;28;20693;-75
2023/02/25 07:11:11;;;;;;;6.45;1.55;;;5.40;99.90;;;;;;5091324;28;20254;-76
2023/02/25 07:13:38;;;;;;;3.08;1.35;;;5.40;99.90;;;;;;5067836;28;20293;-76
2023/02/25 07:16:06;;;;;;;7.00;1.77;;;5.40;99.90;;;;;;5090153;28;20199;-75
2023/02/25 07:18:33;;;;;;;8.45;2.60;;;5.40;99.90;;;;;;5099268;28;20234;-75
2023/02/25 07:21:11;;;;;;;4.07;1.42;;;5.50;99.90;;;;;;5092084;28;20199;-75
2023/02/25 07:23:38;;;;;;;3.65;1.58;;;5.50;99.90;;;;;;5091030;28;20212;-76
2023/02/25 07:26:06;;;;;;;6.78;1.15;;;5.50;99.90;;;;;;5095188;28;20606;-75
2023/02/25 07:28:33;;;;;;;8.18;1.75;;;5.50;99.90;;;;;;5096552;28;20225;-76
2023/02/25 07:31:01;;;;;;;5.82;1.92;;;5.50;99.90;;;;;;5094937;28;20286;-75
2023/02/25 07:33:28;;;;;;;7.28;1.10;;;5.40;99.90;;;;;;5094794;28;20575;-75
2023/02/25 07:35:55;;;;;;;5.53;1.20;;;5.40;99.90;;;;;;5094734;28;20278;-75
2023/02/25 07:38:24;;;;;;;5.07;1.45;;;5.30;99.90;;;;;;5084009;28;20219;-75
2023/02/25 07:40:51;;;;;;;2.45;1.20;;;5.30;99.90;;;;;;5083456;28;20649;-75
2023/02/25 07:43:18;;;;;;;6.65;1.73;;;5.30;99.90;;;;;;5090215;28;20299;-75
2023/02/25 07:45:45;;;;;;;2.97;0.90;;;5.30;99.90;;;;;;5090405;28;20286;-77
2023/02/25 07:48:36;;;;;;;1.25;0.90;;;5.40;99.90;;;;;;5091469;28;20222;-76
2023/02/25 07:51:07;;;;;;;7.32;1.42;;;5.30;99.90;;;;;;5078612;28;20282;-76
2023/02/25 07:53:36;;;;;;;9.68;1.30;;;5.30;99.90;;;;;;5081598;28;20203;-74
2023/02/25 07:56:04;;;;;;;14.40;6.47;;;5.20;99.90;;;;;;5091236;28;20642;-75
2023/02/25 07:58:32;;;;;;;1.83;1.17;;;5.20;99.90;;;;;;5084364;28;20695;-76
2023/02/25 08:01:12;;;;;;;3.15;0.90;;;5.10;99.90;;;;;;5082691;28;20233;-76
2023/02/25 08:03:39;;;;;;;24.00;14.00;;;5.00;99.90;;;;;;5080529;28;20722;-75
2023/02/25 08:06:07;;;;;;;5.40;1.10;;;5.00;99.90;;;;;;5086467;28;20293;-75
2023/02/25 08:08:36;;;;;;;4.35;1.10;;;5.10;99.90;;;;;;5091195;28;20216;-75
2023/02/25 08:11:06;;;;;;;3.97;1.48;;;5.10;99.90;;;;;;5076416;28;20207;-76
2023/02/25 08:13:33;;;;;;;2.22;1.15;;;5.10;99.90;;;;;;5077122;28;20233;-77
2023/02/25 08:16:03;;;;;;;5.13;1.08;;;5.10;99.90;;;;;;5091196;28;20229;-75
2023/02/25 08:18:30;;;;;;;3.78;1.50;;;5.20;99.90;;;;;;5078161;28;20298;-75
2023/02/25 08:20:58;;;;;;;4.78;1.00;;;5.30;99.90;;;;;;5079793;28;20556;-76
2023/02/25 08:23:25;;;;;;;3.58;1.48;;;5.40;99.90;;;;;;5087779;28;20234;-76
2023/02/25 08:25:58;;;;;;;5.03;1.25;;;5.30;99.90;;;;;;5093016;28;20281;-76
2023/02/25 08:28:26;;;;;;;2.00;1.00;;;5.40;99.90;;;;;;5079866;28;20223;-75
2023/02/25 08:30:53;;;;;;;5.93;2.10;;;5.40;99.90;;;;;;5077130;28;20238;-76
2023/02/25 08:33:21;;;;;;;4.00;1.20;;;5.40;99.90;;;;;;5088310;28;20234;-75
2023/02/25 08:35:48;;;;;;;2.95;0.90;;;5.70;99.90;;;;;;5077712;28;20232;-75
2023/02/25 08:38:15;;;;;;;3.08;0.85;;;6.30;99.90;;;;;;5082597;28;20254;-75
2023/02/25 08:40:42;;;;;;;2.40;0.85;;;7.90;99.90;;;;;;5082203;28;20195;-79
2023/02/25 08:43:12;;;;;;;1.95;0.90;;;9.50;99.90;;;;;;5082935;28;20209;-77
2023/02/25 08:45:41;;;;;;;4.03;1.13;;;11.10;94.20;;;;;;5080981;28;20630;-76
2023/02/25 08:48:09;;;;;;;2.97;1.20;;;12.10;88.50;;;;;;5085086;28;20624;-77
2023/02/25 08:50:36;;;;;;;5.70;1.40;;;13.20;86.10;;;;;;5089497;28;20587;-79
2023/02/25 08:53:05;;;;;;;2.20;0.90;;;14.50;83.60;;;;;;5086747;28;20481;-76
2023/02/25 08:55:35;;;;;;;3.23;1.20;;;15.50;77.30;;;;;;5091481;28;20440;-79
2023/02/25 08:58:02;;;;;;;3.37;0.80;;;15.60;74.70;;;;;;5089238;28;20534;-77
2023/02/25 09:00:31;;;;;;;4.57;1.10;;;16.10;72.80;;;;;;5081365;28;20448;-76
2023/02/25 09:02:58;;;;;;;2.47;0.90;;;17.00;71.60;;;;;;5081987;28;21036;-78
2023/02/25 09:05:25;;;;;;;5.73;2.30;;;16.80;68.80;;;;;;5079815;28;20452;-76
2023/02/25 09:07:52;;;;;;;4.97;1.43;;;16.50;69.50;;;;;;5084984;28;20531;-76
2023/02/25 09:10:20;;;;;;;4.03;1.20;;;15.70;68.80;;;;;;5085610;28;20491;-75
2023/02/25 09:12:48;;;;;;;4.60;1.30;;;14.60;69.70;;;;;;5084437;28;20214;-74
2023/02/25 09:15:15;;;;;;;4.22;1.95;;;14.60;71.00;;;;;;5078263;28;20204;-74
2023/02/25 09:17:43;;;;;;;5.60;1.35;;;14.10;71.50;;;;;;5079415;28;20219;-79
2023/02/25 09:20:11;;;;;;;7.75;1.40;;;12.90;73.30;;;;;;5085376;28;20213;-78
2023/02/25 09:22:40;;;;;;;4.13;1.48;;;11.70;76.20;;;;;;5079523;28;20295;-77
2023/02/25 09:25:09;;;;;;;6.88;1.35;;;10.80;79.00;;;;;;5080956;28;20613;-77
2023/02/25 09:27:36;;;;;;;2.88;1.17;;;10.60;81.60;;;;;;5095010;28;20251;-75
2023/02/25 09:30:05;;;;;;;14.23;4.28;;;10.80;79.80;;;;;;5091054;28;20264;-78
2023/02/25 09:32:44;;;;;;;3.38;1.85;;;10.50;79.70;;;;;;5085769;28;20213;-77
2023/02/25 09:35:15;;;;;;;8.00;1.75;;;10.50;81.50;;;;;;5086724;28;20280;-77
2023/02/25 09:37:46;;;;;;;4.38;1.17;;;10.20;81.30;;;;;;5093666;28;20222;-77
2023/02/25 09:40:22;;;;;;;7.80;0.95;;;9.60;83.10;;;;;;5085207;28;20201;-74
2023/02/25 09:42:59;;;;;;;3.80;1.27;;;8.80;84.30;;;;;;5088505;28;20213;-74
2023/02/25 09:45:27;;;;;;;6.10;1.52;;;8.50;87.40;;;;;;5059983;28;20195;-75
2023/02/25 09:47:59;;;;;;;4.30;1.02;;;9.30;87.80;;;;;;5080218;28;20302;-75
2023/02/25 09:50:30;;;;;;;2.15;1.25;;;9.70;85.30;;;;;;5077231;28;20300;-77
2023/02/25 09:53:06;;;;;;;6.43;1.25;;;9.70;85.20;;;;;;5081472;28;20282;-76
2023/02/25 09:55:35;;;;;;;4.45;1.65;;;9.90;84.60;;;;;;5074313;28;20195;-76
2023/02/25 09:58:07;;;;;;;4.15;1.10;;;10.30;83.30;;;;;;5072897;28;20383;-74
2023/02/25 10:00:43;;;;;;;2.00;1.10;;;10.80;82.20;;;;;;5076315;28;20222;-74
2023/02/25 10:03:20;;;;;;;4.75;1.52;;;11.60;80.20;;;;;;5082344;28;20212;-76
2023/02/25 10:05:54;;;;;;;1.52;0.90;;;11.60;78.60;;;;;;5087651;28;20265;-76
2023/02/25 10:08:27;;;;;;;5.63;1.70;;;11.70;78.30;;;;;;5083474;28;20199;-75
2023/02/25 10:11:03;;;;;;;4.60;1.77;;;11.10;78.80;;;;;;5082450;28;20645;-74
2023/02/25 10:13:44;;;;;;;4.70;1.35;;;10.30;79.90;;;;;;5080963;28;20660;-74
2023/02/25 10:16:29;;;;;;;4.20;1.67;;;9.90;82.30;;;;;;5084970;28;20297;-75
2023/02/25 10:19:10;;;;;;;2.47;1.40;;;10.40;83.00;;;;;;5089470;28;20200;-75
2023/02/25 10:21:57;;;;;;;5.30;1.60;;;10.90;81.20;;;;;;5087324;28;20205;-74
2023/02/25 10:24:34;;;;;;;5.07;1.20;;;11.50;79.90;;;;;;5091603;28;20605;-74
2023/02/25 10:27:17;;;;;;;3.92;2.00;;;11.60;78.60;;;;;;5087290;28;20224;-76
2023/02/25 10:29:54;;;;;;;6.25;1.75;;;12.00;79.00;;;;;;5083627;28;20256;-77
2023/02/25 10:32:24;;;;;;;4.65;1.40;;;13.10;76.50;;;;;;5083065;28;20249;-77
2023/02/25 10:35:02;;;;;;;3.17;1.30;;;13.90;75.00;;;;;;5091364;28;20196;-75
2023/02/25 10:37:34;;;;;;;3.13;1.27;;;14.70;73.60;;;;;;5081878;28;20610;-77
2023/02/25 10:40:04;;;;;;;3.28;1.52;;;15.30;71.20;;;;;;5090024;28;20783;-74
2023/02/25 10:42:34;;;;;;;5.90;1.80;;;15.10;70.20;;;;;;5085967;28;20659;-75
2023/02/25 10:45:08;;;;;;;4.65;1.42;;;15.20;70.20;;;;;;5083135;28;20533;-76
2023/02/25 10:47:39;;;;;;;3.08;1.10;;;14.90;70.10;;;;;;5060208;28;20685;-75
2023/02/25 10:50:19;;;;;;;2.75;0.85;;;14.70;69.20;;;;;;5081294;28;20305;-74
2023/02/25 10:52:58;;;;;;;2.70;0.95;;;14.10;69.50;;;;;;5079662;28;20217;-74
2023/02/25 10:55:51;;;;;;;1.80;0.95;;;13.50;70.70;;;;;;5094146;28;20205;-76
2023/02/25 10:58:47;;;;;;;3.13;1.45;;;13.00;71.70;;;;;;5086063;28;20295;-75
2023/02/25 11:01:17;;;;;;;3.55;2.00;;;12.80;73.90;;;;;;5073192;28;20205;-76
2023/02/25 11:03:53;;;;;;;3.80;1.80;;;12.20;73.30;;;;;;5081107;28;20198;-74
2023/02/25 11:06:25;;;;;;;3.78;1.75;;;12.00;75.50;;;;;;5065874;28;20224;-77
2023/02/25 11:08:53;;;;;;;2.42;1.20;;;11.70;75.70;;;;;;5088467;28;20256;-78
2023/02/25 11:11:22;;;;;;;3.28;1.25;;;11.10;76.40;;;;;;5090978;28;20287;-76
2023/02/25 11:14:01;;;;;;;4.65;1.05;;;10.50;77.90;;;;;;5078190;28;20199;-76
2023/02/25 11:16:29;;;;;;;4.25;1.98;;;10.30;77.50;;;;;;5085012;28;20251;-77
2023/02/25 11:18:58;;;;;;;5.80;2.78;;;9.90;78.90;;;;;;5095483;28;20553;-74
2023/02/25 11:21:33;;;;;;;1.90;0.95;;;9.50;79.20;;;;;;5083537;28;20190;-75
2023/02/25 11:24:02;;;;;;;3.65;1.60;;;9.30;81.90;;;;;;5082399;28;20329;-76
2023/02/25 11:26:34;;;;;;;8.35;1.88;;;9.30;80.80;;;;;;5086059;28;20226;-74
2023/02/25 11:29:04;;;;;;;10.73;4.10;;;9.40;79.90;;;;;;5089118;28;20194;-74
2023/02/25 11:31:36;;;;;;;1.58;1.20;;;9.40;79.80;;;;;;5087100;28;20206;-75
2023/02/25 11:34:07;;;;;;;3.78;1.27;;;9.20;79.30;;;;;;5087468;28;20198;-77
2023/02/25 11:36:37;;;;;;;3.85;1.20;;;9.20;80.30;;;;;;5090338;28;20222;-75
2023/02/25 11:39:14;;;;;;;2.35;1.05;;;9.20;79.70;;;;;;5085966;28;20264;-75
2023/02/25 11:41:43;;;;;;;5.32;1.15;;;9.20;80.10;;;;;;5090031;28;20205;-75
2023/02/25 11:44:29;;;;;;;4.88;1.30;;;9.10;79.20;;;;;;5079895;28;20226;-75
2023/02/25 11:47:01;;;;;;;4.80;1.20;;;9.10;78.70;;;;;;5077061;28;20218;-76
2023/02/25 11:49:42;;;;;;;3.53;1.33;;;9.30;79.20;;;;;;5078134;28;20218;-73
2023/02/25 11:52:18;;;;;;;2.20;1.15;;;9.50;79.50;;;;;;5079309;28;20234;-75
2023/02/25 11:54:54;;;;;;;3.15;1.33;;;9.50;77.90;;;;;;5064012;28;20282;-75
2023/02/25 11:57:32;;;;;;;2.97;1.20;;;9.80;78.50;;;;;;5061435;28;20305;-75
2023/02/25 12:00:17;;;;;;;4.45;1.65;;;9.80;78.20;;;;;;5062268;28;20268;-76
2023/02/25 12:02:51;;;;;;;13.38;5.82;;;9.50;79.60;;;;;;5076987;28;20199;-75
2023/02/25 12:05:43;;;;;;;4.50;2.53;;;9.40;79.60;;;;;;5062739;28;20724;-76
2023/02/25 12:08:24;;;;;;;4.22;1.85;;;9.20;79.10;;;;;;5080810;28;20222;-75
2023/02/25 12:11:26;;;;;;;2.28;1.98;;;8.80;80.00;;;;;;5065419;28;20714;-76
2023/02/25 12:14:39;;;;;;;4.72;2.65;;;8.60;80.80;;;;;;5064399;28;20537;-75
2023/02/25 12:17:44;;;;;;;4.03;1.65;;;8.60;80.80;;;;;;5066943;28;20757;-75
2023/02/25 12:20:53;;;;;;;4.30;1.20;;;8.70;80.80;;;;;;5077299;28;20240;-74
2023/02/25 12:24:07;;;;;;;2.78;1.55;;;8.90;79.50;;;;;;5089043;28;20252;-75
2023/02/25 12:26:53;;;;;;;2.55;1.45;;;9.00;79.40;;;;;;5076134;28;20263;-76
2023/02/25 12:29:37;;;;;;;3.90;2.35;;;9.20;79.80;;;;;;5087882;28;20286;-74
2023/02/25 12:32:31;;;;;;;3.75;1.60;;;9.00;80.30;;;;;;5079744;28;20194;-76
2023/02/25 12:35:31;;;;;;;2.28;1.38;;;8.80;80.00;;;;;;5087446;28;20591;-75
2023/02/25 12:38:37;;;;;;;3.60;1.63;;;8.50;81.20;;;;;;5072085;28;20226;-79
2023/02/25 12:41:35;;;;;;;5.30;2.83;;;8.40;81.60;;;;;;5078286;28;20203;-78
2023/02/25 12:44:19;;;;;;;2.60;1.48;;;8.40;82.10;;;;;;5065122;28;20285;-77
2023/02/25 12:47:06;;;;;;;6.93;2.05;;;8.30;81.50;;;;;;5094660;28;20300;-76
2023/02/25 12:50:03;;;;;;;4.03;1.70;;;8.50;81.60;;;;;;5084916;28;20226;-79
2023/02/25 12:52:43;;;;;;;4.80;1.70;;;8.70;79.30;;;;;;5077684;28;20233;-79
2023/02/25 12:55:31;;;;;;;6.80;1.50;;;8.40;79.50;;;;;;5086183;28;20219;-78
2023/02/25 12:58:18;;;;;;;3.53;1.83;;;8.40;81.30;;;;;;5087950;28;20269;-75
2023/02/25 13:01:17;;;;;;;4.53;1.90;;;8.30;82.10;;;;;;5086634;28;20198;-81
2023/02/25 13:04:10;;;;;;;2.40;1.73;;;8.30;82.10;;;;;;5083730;28;20202;-75
2023/02/25 13:07:02;;;;;;;6.70;1.55;;;8.10;80.70;;;;;;5080463;28;20241;-78
2023/02/25 13:09:50;;;;;;;8.10;2.17;;;8.00;81.30;;;;;;5084643;28;20203;-79
2023/02/25 13:12:45;;;;;;;5.93;2.17;;;7.90;81.50;;;;;;5084985;28;20335;-80
2023/02/25 13:15:20;;;;;;;6.13;1.98;;;8.10;81.90;;;;;;5080493;28;20202;-79
2023/02/25 13:18:08;;;;;;;2.88;1.55;;;8.10;81.20;;;;;;5087351;28;20240;-78
2023/02/25 13:21:01;;;;;;;4.50;1.42;;;8.00;79.40;;;;;;5092582;28;20198;-80
2023/02/25 13:24:00;;;;;;;2.55;1.40;;;8.00;79.70;;;;;;5081930;28;20209;-81